Moon Tide — WDH3532 — position and weather

sailwx.info

Track history (hours):
 
Tides and Currents Weather Stations Pressure Air Temp Water Temp Dewpoint Dewpoint Depression Visibility Wind Speed Wind Dir Waves Ship Positions

Moon Tide

Owner: Nelson, Carl, Cambridge, MA. More information available from US FCC via Universal Licensing System and Coast Guard Vessel Documentation Center.

Last reported at 2018-Jan-20 15:21 UTC. Time now 2018-Feb-25 17:48 UTC.
Position N 31°51' W 081°08'.
Warning: this ship's position is 36 days out of date.

Length 19 m.

Type: Sailing vessel. MMSI: 367608290.

Date/timePositionNaut miles runAvg speedWind from/ knotsBaromVisibWave heightAir tempDewpointWater temp
2018-Jan-20 15:21N 31°51' W 081°08'4 7.1
2018-Jan-20 14:49N 31°53' W 081°04'1 2.8
2018-Jan-20 14:28N 31°53' W 081°04'0 0.0
2018-Jan-20 13:58N 31°53' W 081°04'0 0.0
2018-Jan-20 13:28N 31°53' W 081°04'0 0.0
2018-Jan-20 12:58N 31°53' W 081°04'0 0.0
2018-Jan-20 12:28N 31°53' W 081°04'0 0.0
2018-Jan-20 11:58N 31°53' W 081°04'0 0.0
2018-Jan-20 11:28N 31°53' W 081°04'0 0.0
2018-Jan-20 10:58N 31°53' W 081°04'0 0.0
2018-Jan-20 10:28N 31°53' W 081°04'0 0.0
2018-Jan-20 09:58N 31°53' W 081°04'0 0.0
2018-Jan-20 09:28N 31°53' W 081°04'0 0.0
2018-Jan-20 08:58N 31°53' W 081°04'0 0.0
2018-Jan-20 08:28N 31°53' W 081°04'0 0.0
2018-Jan-20 07:58N 31°53' W 081°04'0 0.0
2018-Jan-20 07:28N 31°53' W 081°04'0 0.0
2018-Jan-20 06:58N 31°53' W 081°04'0 0.0
2018-Jan-20 06:28N 31°53' W 081°04'0 0.0
2018-Jan-20 05:58N 31°53' W 081°04'0 0.0
2018-Jan-20 05:28N 31°53' W 081°04'0 0.0
2018-Jan-20 04:58N 31°53' W 081°04'0 0.0
2018-Jan-20 04:28N 31°53' W 081°04'0 0.0
2018-Jan-20 03:58N 31°53' W 081°04'0 0.0
2018-Jan-20 03:28N 31°53' W 081°04'0 0.0
2018-Jan-20 02:58N 31°53' W 081°04'0 0.0
2018-Jan-20 02:28N 31°53' W 081°04'0 0.0
2018-Jan-20 01:55N 31°53' W 081°04'0 0.0
2018-Jan-20 01:28N 31°53' W 081°04'0 0.0
2018-Jan-20 00:58N 31°53' W 081°04'0 0.0
2018-Jan-20 00:28N 31°53' W 081°04'0 0.0
2018-Jan-19 23:58N 31°53' W 081°04'0 0.0
2018-Jan-19 23:28N 31°53' W 081°04'0 0.0
2018-Jan-19 22:58N 31°53' W 081°04'0 0.0
2018-Jan-19 22:28N 31°53' W 081°04'0 0.0
2018-Jan-19 21:58N 31°53' W 081°04'0 0.0
2018-Jan-19 21:28N 31°53' W 081°04'0 0.0
2018-Jan-19 20:58N 31°53' W 081°04'0 0.0
2018-Jan-19 20:28N 31°53' W 081°04'0 0.0
2018-Jan-19 19:58N 31°53' W 081°04'1 2.5
2018-Jan-19 19:28N 31°53' W 081°05'2 4.9
2018-Jan-19 18:59N 31°55' W 081°04'3 6.3
2018-Jan-19 18:30N 31°58' W 081°03'2 4.4
2018-Jan-19 18:00N 31°60' W 081°01'3 5.7
2018-Jan-19 17:30N 32°02' W 081°03'3 5.7
2018-Jan-19 17:00N 32°04' W 081°00'2 3.5
2018-Jan-19 16:29N 32°06' W 081°00'4 7.8
2018-Jan-19 16:00N 32°05' W 081°04'1 1.4
2018-Jan-19 15:28N 32°05' W 081°05'0 0.0
2018-Jan-19 14:58N 32°05' W 081°05'0 0.0
2018-Jan-19 14:28N 32°05' W 081°05'0 0.0
2018-Jan-19 13:58N 32°05' W 081°05'0 0.0
2018-Jan-19 13:28N 32°05' W 081°05'0 0.0
2018-Jan-19 05:58N 32°05' W 081°05'0 0.0
2018-Jan-19 05:28N 32°05' W 081°05'0 0.0
2018-Jan-19 04:58N 32°05' W 081°05'0 0.0
2018-Jan-19 04:28N 32°05' W 081°05'0 0.0
2018-Jan-19 03:58N 32°05' W 081°05'0 0.0
2018-Jan-19 03:28N 32°05' W 081°05'0 0.0
2018-Jan-19 02:58N 32°05' W 081°05'0 0.0
2018-Jan-19 02:28N 32°05' W 081°05'0 0.0
2018-Jan-19 01:58N 32°05' W 081°05'0 0.0
2018-Jan-19 01:28N 32°05' W 081°05'0 0.0
2018-Jan-19 00:58N 32°05' W 081°05'0 0.0
2018-Jan-19 00:28N 32°05' W 081°05'0 0.0
2018-Jan-18 23:58N 32°05' W 081°05'0 0.0
2018-Jan-18 23:28N 32°05' W 081°05'0 0.0
2018-Jan-18 22:58N 32°05' W 081°05'0 0.0
2018-Jan-18 21:13N 32°05' W 081°05'0 0.0
2018-Jan-18 20:58N 32°05' W 081°05'0 0.0
2018-Jan-18 20:28N 32°05' W 081°05'0 0.0
2018-Jan-18 19:58N 32°05' W 081°05'0 0.0
2018-Jan-18 19:28N 32°05' W 081°05'0 0.0
2018-Jan-18 18:58N 32°05' W 081°05'0 0.0
2018-Jan-18 18:28N 32°05' W 081°05'0 0.0
2018-Jan-18 17:58N 32°05' W 081°05'0 0.0
2018-Jan-18 17:28N 32°05' W 081°05'0 0.0
2018-Jan-18 16:58N 32°05' W 081°05'0 0.0
2018-Jan-18 16:28N 32°05' W 081°05'0 0.0
2018-Jan-18 15:58N 32°05' W 081°05'0 0.0
2018-Jan-18 15:28N 32°05' W 081°05'0 0.0
2018-Jan-18 14:58N 32°05' W 081°05'0 0.0
2018-Jan-18 14:28N 32°05' W 081°05'0 0.0
2018-Jan-18 13:58N 32°05' W 081°05'0 0.0
2018-Jan-18 13:28N 32°05' W 081°05'0 0.0
2018-Jan-18 12:58N 32°05' W 081°05'0 0.0
2018-Jan-18 12:28N 32°05' W 081°05'0 0.0
2018-Jan-18 11:58N 32°05' W 081°05'0 0.0
2018-Jan-18 11:28N 32°05' W 081°05'0 0.0
2018-Jan-18 10:58N 32°05' W 081°05'0 0.0
2018-Jan-18 10:28N 32°05' W 081°05'0 0.0
2018-Jan-18 09:58N 32°05' W 081°05'0 0.0
2018-Jan-18 09:28N 32°05' W 081°05'0 0.0
2018-Jan-18 08:58N 32°05' W 081°05'0 0.0
2018-Jan-18 08:28N 32°05' W 081°05'0 0.0
2018-Jan-18 07:58N 32°05' W 081°05'0 0.0
2018-Jan-18 07:28N 32°05' W 081°05'0 0.0
2018-Jan-18 06:58N 32°05' W 081°05'0 0.0
2018-Jan-18 06:28N 32°05' W 081°05'0 0.0
2018-Jan-18 05:58N 32°05' W 081°05'0 0.0
2018-Jan-18 05:28N 32°05' W 081°05'0 0.0
2018-Jan-18 04:58N 32°05' W 081°05'0 0.0
2018-Jan-18 04:28N 32°05' W 081°05'0 0.0
2018-Jan-18 03:04N 32°05' W 081°05'0 0.0
2018-Jan-18 02:58N 32°05' W 081°05'0 0.0
2018-Jan-18 02:28N 32°05' W 081°05'0 0.0
2018-Jan-18 01:58N 32°05' W 081°05'0 0.0
2018-Jan-18 01:28N 32°05' W 081°05'0 0.0
2018-Jan-18 00:58N 32°05' W 081°05'0 0.0
2018-Jan-17 23:58N 32°05' W 081°05'0 0.0
2018-Jan-17 23:55N 32°05' W 081°05'  
Track history (hours):
 
Tides and Currents Weather Stations Pressure Air Temp Water Temp Dewpoint Dewpoint Depression Visibility Wind Speed Wind Dir Waves Ship Positions

Moon Tide

Owner: Nelson, Carl, Cambridge, MA. More information available from US FCC via Universal Licensing System and Coast Guard Vessel Documentation Center.

Last reported at 2018-Jan-20 15:21 UTC. Time now 2018-Feb-25 17:48 UTC.
Position N 31°51' W 081°08'.
Warning: this ship's position is 36 days out of date.

Length 19 m.

Type: Sailing vessel. MMSI: 367608290.

Date/timePositionNaut miles runAvg speedWind from/ knotsBaromVisibWave heightAir tempDewpointWater temp
2018-Jan-20 15:21N 31°51' W 081°08'4 7.1
2018-Jan-20 14:49N 31°53' W 081°04'1 2.8
2018-Jan-20 14:28N 31°53' W 081°04'0 0.0
2018-Jan-20 13:58N 31°53' W 081°04'0 0.0
2018-Jan-20 13:28N 31°53' W 081°04'0 0.0
2018-Jan-20 12:58N 31°53' W 081°04'0 0.0
2018-Jan-20 12:28N 31°53' W 081°04'0 0.0
2018-Jan-20 11:58N 31°53' W 081°04'0 0.0
2018-Jan-20 11:28N 31°53' W 081°04'0 0.0
2018-Jan-20 10:58N 31°53' W 081°04'0 0.0
2018-Jan-20 10:28N 31°53' W 081°04'0 0.0
2018-Jan-20 09:58N 31°53' W 081°04'0 0.0
2018-Jan-20 09:28N 31°53' W 081°04'0 0.0
2018-Jan-20 08:58N 31°53' W 081°04'0 0.0
2018-Jan-20 08:28N 31°53' W 081°04'0 0.0
2018-Jan-20 07:58N 31°53' W 081°04'0 0.0
2018-Jan-20 07:28N 31°53' W 081°04'0 0.0
2018-Jan-20 06:58N 31°53' W 081°04'0 0.0
2018-Jan-20 06:28N 31°53' W 081°04'0 0.0
2018-Jan-20 05:58N 31°53' W 081°04'0 0.0
2018-Jan-20 05:28N 31°53' W 081°04'0 0.0
2018-Jan-20 04:58N 31°53' W 081°04'0 0.0
2018-Jan-20 04:28N 31°53' W 081°04'0 0.0
2018-Jan-20 03:58N 31°53' W 081°04'0 0.0
2018-Jan-20 03:28N 31°53' W 081°04'0 0.0
2018-Jan-20 02:58N 31°53' W 081°04'0 0.0
2018-Jan-20 02:28N 31°53' W 081°04'0 0.0
2018-Jan-20 01:55N 31°53' W 081°04'0 0.0
2018-Jan-20 01:28N 31°53' W 081°04'0 0.0
2018-Jan-20 00:58N 31°53' W 081°04'0 0.0
2018-Jan-20 00:28N 31°53' W 081°04'0 0.0
2018-Jan-19 23:58N 31°53' W 081°04'0 0.0
2018-Jan-19 23:28N 31°53' W 081°04'0 0.0
2018-Jan-19 22:58N 31°53' W 081°04'0 0.0
2018-Jan-19 22:28N 31°53' W 081°04'0 0.0
2018-Jan-19 21:58N 31°53' W 081°04'0 0.0
2018-Jan-19 21:28N 31°53' W 081°04'0 0.0
2018-Jan-19 20:58N 31°53' W 081°04'0 0.0
2018-Jan-19 20:28N 31°53' W 081°04'0 0.0
2018-Jan-19 19:58N 31°53' W 081°04'1 2.5
2018-Jan-19 19:28N 31°53' W 081°05'2 4.9
2018-Jan-19 18:59N 31°55' W 081°04'3 6.3
2018-Jan-19 18:30N 31°58' W 081°03'2 4.4
2018-Jan-19 18:00N 31°60' W 081°01'3 5.7
2018-Jan-19 17:30N 32°02' W 081°03'3 5.7
2018-Jan-19 17:00N 32°04' W 081°00'2 3.5
2018-Jan-19 16:29N 32°06' W 081°00'4 7.8
2018-Jan-19 16:00N 32°05' W 081°04'1 1.4
2018-Jan-19 15:28N 32°05' W 081°05'0 0.0
2018-Jan-19 14:58N 32°05' W 081°05'0 0.0
2018-Jan-19 14:28N 32°05' W 081°05'0 0.0
2018-Jan-19 13:58N 32°05' W 081°05'0 0.0
2018-Jan-19 13:28N 32°05' W 081°05'0 0.0
2018-Jan-19 05:58N 32°05' W 081°05'0 0.0
2018-Jan-19 05:28N 32°05' W 081°05'0 0.0
2018-Jan-19 04:58N 32°05' W 081°05'0 0.0
2018-Jan-19 04:28N 32°05' W 081°05'0 0.0
2018-Jan-19 03:58N 32°05' W 081°05'0 0.0
2018-Jan-19 03:28N 32°05' W 081°05'0 0.0
2018-Jan-19 02:58N 32°05' W 081°05'0 0.0
2018-Jan-19 02:28N 32°05' W 081°05'0 0.0
2018-Jan-19 01:58N 32°05' W 081°05'0 0.0
2018-Jan-19 01:28N 32°05' W 081°05'0 0.0
2018-Jan-19 00:58N 32°05' W 081°05'0 0.0
2018-Jan-19 00:28N 32°05' W 081°05'0 0.0
2018-Jan-18 23:58N 32°05' W 081°05'0 0.0
2018-Jan-18 23:28N 32°05' W 081°05'0 0.0
2018-Jan-18 22:58N 32°05' W 081°05'0 0.0
2018-Jan-18 21:13N 32°05' W 081°05'0 0.0
2018-Jan-18 20:58N 32°05' W 081°05'0 0.0
2018-Jan-18 20:28N 32°05' W 081°05'0 0.0
2018-Jan-18 19:58N 32°05' W 081°05'0 0.0
2018-Jan-18 19:28N 32°05' W 081°05'0 0.0
2018-Jan-18 18:58N 32°05' W 081°05'0 0.0
2018-Jan-18 18:28N 32°05' W 081°05'0 0.0
2018-Jan-18 17:58N 32°05' W 081°05'0 0.0
2018-Jan-18 17:28N 32°05' W 081°05'0 0.0
2018-Jan-18 16:58N 32°05' W 081°05'0 0.0
2018-Jan-18 16:28N 32°05' W 081°05'0 0.0
2018-Jan-18 15:58N 32°05' W 081°05'0 0.0
2018-Jan-18 15:28N 32°05' W 081°05'0 0.0
2018-Jan-18 14:58N 32°05' W 081°05'0 0.0
2018-Jan-18 14:28N 32°05' W 081°05'0 0.0
2018-Jan-18 13:58N 32°05' W 081°05'0 0.0
2018-Jan-18 13:28N 32°05' W 081°05'0 0.0
2018-Jan-18 12:58N 32°05' W 081°05'0 0.0
2018-Jan-18 12:28N 32°05' W 081°05'0 0.0
2018-Jan-18 11:58N 32°05' W 081°05'0 0.0
2018-Jan-18 11:28N 32°05' W 081°05'0 0.0
2018-Jan-18 10:58N 32°05' W 081°05'0 0.0
2018-Jan-18 10:28N 32°05' W 081°05'0 0.0
2018-Jan-18 09:58N 32°05' W 081°05'0 0.0
2018-Jan-18 09:28N 32°05' W 081°05'0 0.0
2018-Jan-18 08:58N 32°05' W 081°05'0 0.0
2018-Jan-18 08:28N 32°05' W 081°05'0 0.0
2018-Jan-18 07:58N 32°05' W 081°05'0 0.0
2018-Jan-18 07:28N 32°05' W 081°05'0 0.0
2018-Jan-18 06:58N 32°05' W 081°05'0 0.0
2018-Jan-18 06:28N 32°05' W 081°05'0 0.0
2018-Jan-18 05:58N 32°05' W 081°05'0 0.0
2018-Jan-18 05:28N 32°05' W 081°05'0 0.0
2018-Jan-18 04:58N 32°05' W 081°05'0 0.0
2018-Jan-18 04:28N 32°05' W 081°05'0 0.0
2018-Jan-18 03:04N 32°05' W 081°05'0 0.0
2018-Jan-18 02:58N 32°05' W 081°05'0 0.0
2018-Jan-18 02:28N 32°05' W 081°05'0 0.0
2018-Jan-18 01:58N 32°05' W 081°05'0 0.0
2018-Jan-18 01:28N 32°05' W 081°05'0 0.0
2018-Jan-18 00:58N 32°05' W 081°05'0 0.0
2018-Jan-17 23:58N 32°05' W 081°05'0 0.0
2018-Jan-17 23:55N 32°05' W 081°05'  

Dump ship's entire track history